Time;durP1;ratioP1;P1;durP2;ratioP2;P2;SDS_P1;SDS_P2;PMS_P1;PMS_P2;Temp;Humidity;BMP_temperature;BMP_pressure;BME280_temperature;BME280_humidity;BME280_pressure;Samples;Min_cycle;Max_cycle;Signal;HPM_P1;HPM_P2
2023/10/20 00:02:19;;;;;;;6.80;6.20;;;14.90;99.90;;;;;;6307142;22;20627;-40
2023/10/20 00:04:45;;;;;;;6.77;6.03;;;14.90;99.90;;;;;;6306966;22;20429;-39
2023/10/20 00:07:11;;;;;;;6.80;6.20;;;14.90;99.90;;;;;;6307450;22;20268;-40
2023/10/20 00:09:36;;;;;;;6.77;6.13;;;14.90;99.90;;;;;;6307367;22;20152;-41
2023/10/20 00:12:04;;;;;;;6.47;5.87;;;14.90;99.90;;;;;;6307908;22;20493;-40
2023/10/20 00:14:30;;;;;;;6.07;5.57;;;14.90;99.90;;;;;;6280783;22;20152;-42
2023/10/20 00:16:55;;;;;;;5.70;5.20;;;14.80;99.90;;;;;;6309231;22;20681;-39
2023/10/20 00:19:21;;;;;;;6.70;6.03;;;14.80;99.90;;;;;;6307429;22;20132;-39
2023/10/20 00:21:47;;;;;;;6.40;5.80;;;14.90;99.90;;;;;;6310277;22;20132;-43
2023/10/20 00:24:12;;;;;;;5.87;5.27;;;14.90;99.90;;;;;;6309434;22;20556;-42
2023/10/20 00:26:39;;;;;;;6.53;5.93;;;14.90;99.90;;;;;;6309848;22;20167;-39
2023/10/20 00:29:05;;;;;;;7.33;6.70;;;14.80;99.90;;;;;;6309168;22;20148;-38
2023/10/20 00:31:31;;;;;;;6.67;6.07;;;14.80;99.90;;;;;;6309102;22;20390;-39
2023/10/20 00:33:57;;;;;;;6.83;6.33;;;14.80;99.90;;;;;;6307778;22;20654;-40
2023/10/20 00:36:23;;;;;;;6.27;5.67;;;14.80;99.90;;;;;;6308497;22;20489;-42
2023/10/20 00:38:48;;;;;;;6.87;6.27;;;14.80;99.90;;;;;;6308037;22;20155;-40
2023/10/20 00:41:14;;;;;;;6.77;6.07;;;14.80;99.90;;;;;;6308115;22;20163;-40
2023/10/20 00:43:39;;;;;;;7.57;6.97;;;14.80;99.90;;;;;;6307410;22;20455;-40
2023/10/20 00:46:07;;;;;;;6.80;6.03;;;14.80;99.90;;;;;;6307510;22;20135;-40
2023/10/20 00:48:35;;;;;;;5.97;5.47;;;14.80;99.90;;;;;;6309170;22;20159;-41
2023/10/20 00:51:01;;;;;;;6.77;6.17;;;14.80;99.90;;;;;;6310197;22;20417;-41
2023/10/20 00:53:28;;;;;;;5.80;5.30;;;14.80;99.90;;;;;;6310300;22;20386;-39
2023/10/20 00:55:56;;;;;;;6.00;5.40;;;14.80;99.90;;;;;;6309368;22;20179;-41
2023/10/20 00:58:24;;;;;;;5.97;5.47;;;14.80;99.90;;;;;;6308569;22;20351;-41
2023/10/20 01:00:50;;;;;;;5.23;4.73;;;14.80;99.90;;;;;;6309347;22;20386;-40
2023/10/20 01:03:15;;;;;;;5.10;4.60;;;14.80;99.90;;;;;;6309830;22;20434;-42
2023/10/20 01:05:41;;;;;;;5.27;4.77;;;14.80;99.90;;;;;;6308359;22;20184;-41
2023/10/20 01:08:07;;;;;;;5.43;4.93;;;14.80;99.90;;;;;;6308979;22;20148;-42
2023/10/20 01:10:34;;;;;;;5.03;4.50;;;14.80;99.90;;;;;;6309135;22;20563;-42
2023/10/20 01:13:00;;;;;;;5.00;4.50;;;14.80;99.90;;;;;;6308753;22;20358;-44
2023/10/20 01:15:25;;;;;;;4.20;3.90;;;14.80;99.90;;;;;;6307639;22;20152;-40
2023/10/20 01:17:51;;;;;;;5.37;4.90;;;14.80;99.90;;;;;;6282791;22;20234;-39
2023/10/20 01:20:17;;;;;;;6.70;4.47;;;14.80;99.90;;;;;;6309203;22;20171;-42
2023/10/20 01:22:42;;;;;;;5.13;4.73;;;14.80;99.90;;;;;;6308354;22;20159;-50
2023/10/20 01:25:08;;;;;;;10.33;5.90;;;14.80;99.90;;;;;;6307780;22;20141;-42
2023/10/20 01:27:33;;;;;;;4.93;4.53;;;14.70;99.90;;;;;;6307920;22;20199;-39
2023/10/20 01:29:59;;;;;;;6.00;5.50;;;14.70;99.90;;;;;;6309701;22;20182;-40
2023/10/20 01:32:25;;;;;;;5.50;5.00;;;14.70;99.90;;;;;;6310689;22;20148;-42
2023/10/20 01:34:50;;;;;;;5.57;5.07;;;14.70;99.90;;;;;;6283329;22;20187;-40
2023/10/20 01:37:16;;;;;;;5.70;5.20;;;14.70;99.90;;;;;;6309717;22;20632;-41
2023/10/20 01:39:42;;;;;;;6.07;5.47;;;14.70;99.90;;;;;;6311514;22;20520;-40
2023/10/20 01:42:08;;;;;;;5.10;4.60;;;14.70;99.90;;;;;;6310988;22;20191;-40
2023/10/20 01:44:34;;;;;;;5.43;5.00;;;14.70;99.90;;;;;;6311036;22;20564;-41
2023/10/20 01:46:59;;;;;;;5.40;4.90;;;14.70;99.90;;;;;;6283978;22;20386;-42
2023/10/20 01:49:25;;;;;;;5.30;4.80;;;14.70;99.90;;;;;;6284186;22;20128;-40
2023/10/20 01:51:51;;;;;;;5.53;5.03;;;14.70;99.90;;;;;;6311670;22;20140;-42
2023/10/20 01:54:16;;;;;;;5.83;5.33;;;14.70;99.90;;;;;;6310826;22;20147;-40
2023/10/20 01:56:43;;;;;;;5.63;5.13;;;14.70;99.90;;;;;;6310750;22;20471;-43
2023/10/20 01:59:09;;;;;;;5.10;4.43;;;14.70;99.90;;;;;;6311503;22;20335;-40
2023/10/20 02:01:35;;;;;;;3.97;3.67;;;14.70;99.90;;;;;;6310873;22;20366;-39
2023/10/20 02:04:01;;;;;;;4.13;3.73;;;14.70;99.90;;;;;;6311334;22;20167;-40
2023/10/20 02:06:26;;;;;;;4.07;3.77;;;14.70;99.90;;;;;;6310351;22;20210;-40
2023/10/20 02:08:52;;;;;;;4.37;3.97;;;14.70;99.90;;;;;;6311365;22;20226;-42
2023/10/20 02:11:17;;;;;;;6.00;4.10;;;14.70;99.90;;;;;;6309859;22;20171;-38
2023/10/20 02:13:43;;;;;;;5.20;4.27;;;14.70;99.90;;;;;;6309666;22;20235;-42
2023/10/20 02:16:10;;;;;;;4.47;4.07;;;14.70;99.90;;;;;;6309215;22;20219;-39
2023/10/20 02:18:36;;;;;;;4.30;3.90;;;14.70;99.90;;;;;;6282863;22;20175;-40
2023/10/20 02:21:07;;;;;;;3.60;3.30;;;14.60;99.90;;;;;;6310388;22;20386;-42
2023/10/20 02:23:40;;;;;;;3.70;3.40;;;14.70;99.90;;;;;;6311277;22;20461;-40
2023/10/20 02:26:07;;;;;;;4.93;4.00;;;14.70;99.90;;;;;;6310448;22;20374;-41
2023/10/20 02:28:36;;;;;;;4.30;3.90;;;14.70;99.90;;;;;;6310618;22;20455;-40
2023/10/20 02:31:11;;;;;;;4.10;3.70;;;14.70;99.90;;;;;;6309999;22;20358;-41
2023/10/20 02:33:37;;;;;;;4.37;3.93;;;14.70;99.90;;;;;;6310629;22;20385;-43
2023/10/20 02:36:03;;;;;;;4.47;4.03;;;14.70;99.90;;;;;;6310983;22;20387;-40
2023/10/20 02:38:29;;;;;;;4.47;4.07;;;14.60;99.90;;;;;;6310761;22;20163;-39
2023/10/20 02:40:55;;;;;;;4.73;4.30;;;14.70;99.90;;;;;;6309223;22;20417;-41
2023/10/20 02:43:21;;;;;;;4.83;4.27;;;14.60;99.90;;;;;;6308895;22;20164;-42
2023/10/20 02:45:52;;;;;;;4.40;4.00;;;14.60;99.90;;;;;;6310137;22;20634;-44
2023/10/20 02:48:18;;;;;;;5.00;3.40;;;14.60;99.90;;;;;;6310608;22;20374;-39
2023/10/20 02:50:44;;;;;;;4.33;3.93;;;14.60;99.90;;;;;;6310157;22;20385;-38
2023/10/20 02:53:10;;;;;;;4.10;3.70;;;14.60;99.90;;;;;;6308432;22;20383;-40
2023/10/20 02:55:37;;;;;;;4.20;3.80;;;14.60;99.90;;;;;;6308758;22;20136;-39
2023/10/20 02:58:03;;;;;;;4.43;4.03;;;14.60;99.90;;;;;;6307829;22;20355;-40
2023/10/20 03:00:28;;;;;;;5.53;3.93;;;14.60;99.90;;;;;;6309342;22;20442;-43
2023/10/20 03:02:54;;;;;;;4.23;3.77;;;14.60;99.90;;;;;;6282673;22;20483;-39
2023/10/20 03:05:20;;;;;;;3.80;3.50;;;14.60;99.90;;;;;;6309998;22;20144;-40
2023/10/20 03:07:47;;;;;;;4.13;3.73;;;14.60;99.90;;;;;;6308668;22;20417;-42
2023/10/20 03:10:12;;;;;;;5.17;4.20;;;14.60;99.90;;;;;;6308869;22;20382;-40
2023/10/20 03:12:38;;;;;;;4.53;4.13;;;14.60;99.90;;;;;;6309182;22;20393;-42
2023/10/20 03:15:06;;;;;;;4.50;4.07;;;14.60;99.90;;;;;;6310060;22;20179;-41
2023/10/20 03:17:32;;;;;;;4.30;3.90;;;14.60;99.90;;;;;;6309510;22;20442;-41
2023/10/20 03:19:57;;;;;;;4.43;3.50;;;14.60;99.90;;;;;;6309225;22;20469;-42
2023/10/20 03:22:23;;;;;;;3.70;3.40;;;14.60;99.90;;;;;;6309193;22;20343;-41
2023/10/20 03:24:49;;;;;;;4.20;3.80;;;14.60;99.90;;;;;;6308661;22;20171;-42
2023/10/20 03:27:14;;;;;;;5.13;4.30;;;14.60;99.90;;;;;;6308751;22;20532;-40
2023/10/20 03:29:40;;;;;;;3.47;3.17;;;14.60;99.90;;;;;;6308743;22;20148;-40
2023/10/20 03:32:06;;;;;;;4.20;3.90;;;14.60;99.90;;;;;;6308395;22;20148;-40
2023/10/20 03:34:32;;;;;;;5.27;3.47;;;14.60;99.90;;;;;;6307415;22;20132;-42
2023/10/20 03:36:58;;;;;;;4.80;3.60;;;14.60;99.90;;;;;;6307812;22;20128;-39
2023/10/20 03:39:24;;;;;;;4.30;3.37;;;14.60;99.90;;;;;;6308004;22;20753;-42
2023/10/20 03:41:50;;;;;;;4.03;3.63;;;14.60;99.90;;;;;;6307747;22;20456;-41
2023/10/20 03:44:16;;;;;;;3.83;3.40;;;14.60;99.90;;;;;;6307897;22;20475;-40
2023/10/20 03:46:56;;;;;;;4.30;3.90;;;14.60;99.90;;;;;;6308194;22;20156;-40
2023/10/20 03:49:22;;;;;;;4.10;3.70;;;14.60;99.90;;;;;;6308426;22;20377;-41
2023/10/20 03:51:50;;;;;;;4.83;4.07;;;14.60;99.90;;;;;;6306375;22;20363;-41
2023/10/20 03:54:19;;;;;;;4.40;4.00;;;14.60;99.90;;;;;;6305555;22;20152;-41
2023/10/20 03:56:45;;;;;;;4.60;4.20;;;14.60;99.90;;;;;;6305852;22;20806;-41
2023/10/20 03:59:11;;;;;;;4.80;4.30;;;14.50;99.90;;;;;;6307246;22;20394;-43
2023/10/20 04:01:38;;;;;;;5.10;4.70;;;14.50;99.90;;;;;;6280947;22;20539;-40
2023/10/20 04:04:07;;;;;;;8.73;4.60;;;14.50;99.90;;;;;;6308009;22;20398;-41
2023/10/20 04:06:33;;;;;;;5.23;4.80;;;14.50;99.90;;;;;;6307957;22;20429;-42
2023/10/20 04:08:59;;;;;;;5.40;4.87;;;14.50;99.90;;;;;;6309380;22;20425;-41
2023/10/20 04:11:25;;;;;;;5.70;5.17;;;14.50;99.90;;;;;;6308720;22;20186;-40
2023/10/20 04:13:50;;;;;;;7.23;6.53;;;14.50;99.90;;;;;;6305469;22;20797;-42
2023/10/20 04:16:18;;;;;;;6.73;5.97;;;14.50;99.90;;;;;;6307254;22;20155;-40
2023/10/20 04:18:44;;;;;;;8.73;7.23;;;14.40;99.90;;;;;;6306282;22;20136;-41
2023/10/20 04:21:11;;;;;;;6.57;5.97;;;14.50;99.90;;;;;;6307827;22;20390;-41
2023/10/20 04:23:37;;;;;;;7.20;6.50;;;14.50;99.90;;;;;;6306578;22;20605;-40
2023/10/20 04:26:04;;;;;;;8.40;7.70;;;14.40;99.90;;;;;;6306609;22;20378;-42
2023/10/20 04:28:37;;;;;;;6.63;6.03;;;14.40;99.90;;;;;;6308166;22;20358;-39
2023/10/20 04:42:43;;;;;;;8.17;7.47;;;14.30;99.90;;;;;;6305671;22;20470;-40
2023/10/20 04:50:35;;;;;;;9.40;7.80;;;14.30;99.90;;;;;;6305668;22;20690;-41
2023/10/20 05:00:41;;;;;;;9.63;8.73;;;14.30;99.90;;;;;;6303176;22;20186;-39
2023/10/20 05:03:17;;;;;;;8.90;8.00;;;14.30;99.90;;;;;;6303769;22;20465;-39
2023/10/20 05:05:53;;;;;;;9.50;8.50;;;14.20;99.90;;;;;;6306241;22;20424;-41
2023/10/20 05:08:23;;;;;;;11.17;9.40;;;14.20;99.90;;;;;;6306910;22;20401;-40
2023/10/20 05:10:49;;;;;;;9.50;8.60;;;14.20;99.90;;;;;;6305467;22;20382;-39
2023/10/20 05:13:16;;;;;;;10.97;9.97;;;14.20;99.90;;;;;;6305338;22;20358;-40
2023/10/20 05:15:43;;;;;;;8.93;8.13;;;14.20;99.90;;;;;;6306950;22;20476;-40
2023/10/20 05:18:11;;;;;;;10.07;9.27;;;14.20;99.90;;;;;;6306129;22;20390;-39
2023/10/20 05:20:42;;;;;;;10.63;8.20;;;14.10;99.90;;;;;;6304549;22;20670;-40
2023/10/20 05:23:08;;;;;;;10.90;9.90;;;14.10;99.90;;;;;;6276968;22;20519;-39
2023/10/20 05:25:34;;;;;;;9.70;8.70;;;14.10;99.90;;;;;;6279259;22;20350;-40
2023/10/20 05:28:02;;;;;;;9.67;8.87;;;14.10;99.90;;;;;;6277955;22;20643;-40
2023/10/20 05:30:28;;;;;;;9.70;8.80;;;14.10;99.90;;;;;;6302694;22;20240;-39
2023/10/20 05:32:54;;;;;;;9.73;8.90;;;14.10;99.90;;;;;;6302250;22;20642;-40
2023/10/20 05:35:19;;;;;;;10.13;9.03;;;14.10;99.90;;;;;;6303184;22;20424;-41
2023/10/20 05:37:45;;;;;;;9.70;8.83;;;14.10;99.90;;;;;;6306261;22;20151;-39
2023/10/20 05:40:14;;;;;;;9.10;8.30;;;14.10;99.90;;;;;;6302727;22;20144;-40
2023/10/20 05:42:40;;;;;;;11.17;10.17;;;14.10;99.90;;;;;;6304853;22;20185;-42
2023/10/20 05:45:09;;;;;;;10.00;9.00;;;14.10;99.90;;;;;;6306925;22;20410;-42
2023/10/20 05:47:38;;;;;;;11.93;8.93;;;14.00;99.90;;;;;;6306505;22;20409;-41
2023/10/20 05:50:05;;;;;;;9.77;8.80;;;14.00;99.90;;;;;;6306307;22;20484;-40
2023/10/20 05:52:31;;;;;;;10.40;8.50;;;14.00;99.90;;;;;;6307988;22;20361;-39
2023/10/20 05:54:59;;;;;;;10.63;9.50;;;14.00;99.90;;;;;;6306866;22;20358;-41
2023/10/20 05:57:25;;;;;;;9.47;8.47;;;14.00;99.90;;;;;;6308121;22;20258;-39
2023/10/20 05:59:51;;;;;;;8.53;7.73;;;13.90;99.90;;;;;;6307494;22;20396;-41
2023/10/20 06:02:18;;;;;;;9.10;8.23;;;13.90;99.90;;;;;;6305377;22;20820;-39
2023/10/20 06:04:43;;;;;;;8.27;7.53;;;13.90;99.90;;;;;;6307200;22;20499;-41
2023/10/20 06:07:09;;;;;;;7.97;7.20;;;13.90;99.90;;;;;;6257379;22;20760;-42
2023/10/20 06:09:35;;;;;;;8.67;7.97;;;13.90;99.90;;;;;;6277862;22;20176;-41
2023/10/20 06:12:02;;;;;;;9.47;8.67;;;13.90;99.90;;;;;;6277856;22;20375;-40
2023/10/20 06:14:27;;;;;;;9.53;8.63;;;13.90;99.90;;;;;;6277192;22;20160;-40
2023/10/20 06:16:53;;;;;;;10.47;9.57;;;13.90;99.90;;;;;;6275905;22;20411;-43
2023/10/20 06:19:19;;;;;;;4.53;3.63;;;13.90;99.90;;;;;;6275176;22;20137;-40
2023/10/20 06:21:45;;;;;;;10.80;4.47;;;14.20;1.00;;;;;;6273952;22;20416;-44
2023/10/20 06:24:11;;;;;;;8.40;3.90;;;14.90;1.00;;;;;;6273702;22;20864;-44
2023/10/20 06:26:37;;;;;;;6.27;5.10;;;15.60;99.90;;;;;;6247714;22;20487;-40
2023/10/20 06:29:16;;;;;;;8.30;4.50;;;16.00;99.90;;;;;;6277123;22;20440;-41
2023/10/20 06:31:42;;;;;;;7.27;4.63;;;16.50;1.00;;;;;;6276475;22;20477;-42
2023/10/20 06:34:23;;;;;;;8.37;5.77;;;16.90;1.00;;;;;;6276926;22;20374;-42
2023/10/20 06:37:05;;;;;;;8.77;7.90;;;17.00;99.90;;;;;;6278111;22;20144;-41
2023/10/20 06:39:31;;;;;;;8.90;8.10;;;16.90;1.00;;;;;;6275233;22;20400;-41
2023/10/20 06:41:56;;;;;;;8.33;7.60;;;16.60;99.90;;;;;;6276723;22;20390;-39
2023/10/20 06:44:22;;;;;;;9.37;8.57;;;16.30;99.90;;;;;;6276091;22;20242;-38
2023/10/20 06:46:47;;;;;;;9.70;8.80;;;16.00;99.90;;;;;;6274248;22;20365;-39
2023/10/20 06:49:18;;;;;;;8.90;8.10;;;15.80;1.00;;;;;;6248890;22;20144;-42
2023/10/20 06:51:45;;;;;;;8.93;8.03;;;15.50;1.00;;;;;;6248020;22;20183;-40
2023/10/20 06:54:12;;;;;;;9.67;8.87;;;15.40;25.10;;;;;;6274131;22;20810;-40
2023/10/20 06:56:37;;;;;;;8.20;7.47;;;15.20;99.90;;;;;;6273435;22;20509;-39
2023/10/20 06:59:03;;;;;;;8.73;8.03;;;15.10;99.90;;;;;;6275325;22;20676;-40
2023/10/20 07:01:32;;;;;;;9.63;8.70;;;15.00;99.90;;;;;;6274996;22;20421;-39
2023/10/20 07:03:58;;;;;;;9.70;8.70;;;15.00;99.90;;;;;;6274849;22;20254;-40
2023/10/20 07:06:24;;;;;;;8.70;8.00;;;15.00;99.90;;;;;;6287869;22;20421;-39
2023/10/20 07:08:50;;;;;;;9.57;8.60;;;15.00;99.90;;;;;;6281751;22;20455;-40
2023/10/20 07:11:16;;;;;;;8.53;7.63;;;15.00;99.90;;;;;;6308920;22;20393;-40
2023/10/20 07:13:44;;;;;;;9.43;8.63;;;14.90;99.90;;;;;;6306791;22;20666;-40
2023/10/20 07:16:11;;;;;;;11.03;10.03;;;14.90;99.90;;;;;;6306579;22;20389;-40
2023/10/20 07:18:38;;;;;;;11.40;10.30;;;15.00;99.90;;;;;;6305561;22;20394;-39
2023/10/20 07:21:04;;;;;;;9.90;7.83;;;14.90;99.90;;;;;;6306351;22;20481;-40
2023/10/20 07:23:29;;;;;;;10.37;9.37;;;14.90;99.90;;;;;;6305299;22;21012;-41
2023/10/20 07:25:55;;;;;;;11.03;9.93;;;14.90;99.90;;;;;;6279111;22;20386;-39
2023/10/20 07:28:21;;;;;;;10.63;9.63;;;14.80;99.90;;;;;;6304424;22;20516;-40
2023/10/20 07:30:47;;;;;;;11.20;10.10;;;14.80;99.90;;;;;;6306224;22;20131;-39
2023/10/20 07:33:13;;;;;;;11.13;10.00;;;14.80;99.90;;;;;;6308218;22;20489;-39
2023/10/20 07:35:38;;;;;;;11.20;10.20;;;14.80;99.90;;;;;;6308509;22;20182;-43
2023/10/20 07:38:04;;;;;;;10.97;9.97;;;14.80;99.90;;;;;;6252842;22;20511;-40
2023/10/20 07:40:34;;;;;;;11.77;10.67;;;14.90;99.90;;;;;;6305512;22;20358;-39
2023/10/20 07:43:03;;;;;;;11.33;10.20;;;14.90;99.90;;;;;;6308293;22;20164;-39
2023/10/20 07:45:29;;;;;;;9.80;8.90;;;14.90;99.90;;;;;;6280203;22;20378;-39
2023/10/20 07:47:54;;;;;;;11.40;10.20;;;14.90;99.90;;;;;;6306899;22;20429;-41
2023/10/20 07:50:20;;;;;;;9.80;8.80;;;14.90;99.90;;;;;;6307564;22;20178;-43
2023/10/20 07:52:46;;;;;;;11.00;9.37;;;15.00;99.90;;;;;;6305598;22;20801;-40
2023/10/20 07:55:11;;;;;;;9.80;8.90;;;15.00;99.90;;;;;;6305833;22;20156;-39
2023/10/20 07:57:37;;;;;;;9.87;8.97;;;15.00;99.90;;;;;;6305945;22;20163;-40
2023/10/20 08:00:03;;;;;;;11.10;10.10;;;15.10;99.90;;;;;;6306382;22;20152;-39
2023/10/20 08:02:29;;;;;;;11.90;9.50;;;15.10;99.90;;;;;;6308059;22;20155;-40
2023/10/20 08:04:55;;;;;;;10.73;9.73;;;15.20;99.90;;;;;;6304675;22;20812;-38
2023/10/20 08:07:20;;;;;;;10.50;9.60;;;15.20;99.90;;;;;;6303782;22;20529;-38
2023/10/20 08:09:46;;;;;;;11.60;10.40;;;15.20;99.90;;;;;;6303305;22;20190;-40
2023/10/20 08:12:12;;;;;;;11.27;10.17;;;15.30;99.90;;;;;;6304330;22;20202;-42
2023/10/20 08:14:38;;;;;;;10.10;9.20;;;15.30;99.90;;;;;;6252586;22;20673;-39
2023/10/20 08:17:05;;;;;;;10.50;9.50;;;15.30;99.90;;;;;;6306327;22;20413;-40
2023/10/20 08:19:30;;;;;;;9.50;8.70;;;15.30;99.90;;;;;;6306884;22;20496;-41
2023/10/20 08:21:56;;;;;;;8.73;8.00;;;15.30;99.90;;;;;;6305817;22;20369;-40
2023/10/20 08:24:24;;;;;;;9.03;8.23;;;15.40;99.90;;;;;;6304548;22;20567;-38
2023/10/20 08:26:49;;;;;;;8.70;7.90;;;15.50;99.90;;;;;;6303731;22;20150;-41
2023/10/20 08:29:16;;;;;;;8.40;7.60;;;15.50;99.90;;;;;;6306578;22;20416;-38
2023/10/20 08:31:42;;;;;;;9.73;8.83;;;15.60;99.90;;;;;;6305487;22;20550;-40
2023/10/20 08:34:09;;;;;;;11.73;9.87;;;15.70;99.90;;;;;;6281530;22;20474;-41
2023/10/20 08:36:36;;;;;;;9.70;8.73;;;15.80;93.00;;;;;;6308487;22;20427;-39
2023/10/20 08:39:02;;;;;;;9.77;8.87;;;15.90;30.50;;;;;;6305022;22;20386;-40
2023/10/20 08:41:27;;;;;;;9.60;8.70;;;16.00;3.00;;;;;;6302150;22;20893;-39
2023/10/20 08:43:56;;;;;;;9.20;8.40;;;16.20;3.60;;;;;;6303481;22;20429;-41
2023/10/20 08:46:23;;;;;;;10.03;9.13;;;16.50;1.00;;;;;;6304447;22;20175;-38
2023/10/20 08:48:49;;;;;;;8.97;8.17;;;16.60;1.00;;;;;;6303313;22;20499;-39
2023/10/20 08:51:17;;;;;;;8.93;8.10;;;16.80;1.00;;;;;;6251437;22;20809;-39
2023/10/20 08:53:43;;;;;;;11.30;10.30;;;16.90;99.90;;;;;;6278915;22;20391;-41
2023/10/20 08:56:10;;;;;;;9.77;8.97;;;16.90;99.90;;;;;;6252082;22;20689;-40
2023/10/20 08:58:36;;;;;;;9.67;8.77;;;16.90;48.80;;;;;;6304574;22;20453;-40
2023/10/20 09:01:04;;;;;;;10.17;9.17;;;17.00;99.90;;;;;;6279736;22;20369;-39
2023/10/20 09:03:40;;;;;;;9.33;8.40;;;17.00;99.90;;;;;;6304535;22;20906;-39
2023/10/20 09:06:09;;;;;;;8.97;8.17;;;17.20;27.50;;;;;;6272008;22;20487;-39
2023/10/20 09:08:35;;;;;;;9.30;8.50;;;17.30;1.00;;;;;;6274719;22;20395;-39
2023/10/20 09:11:01;;;;;;;10.30;9.30;;;17.40;1.00;;;;;;6275022;22;20375;-42
2023/10/20 09:13:34;;;;;;;8.73;7.90;;;17.40;74.30;;;;;;6273200;22;20359;-41
2023/10/20 09:16:07;;;;;;;9.53;8.63;;;17.50;99.90;;;;;;6273809;22;20384;-43
2023/10/20 09:18:43;;;;;;;8.93;8.03;;;17.60;4.40;;;;;;6273765;22;20739;-41
2023/10/20 09:21:08;;;;;;;8.00;7.20;;;17.60;1.00;;;;;;6270618;22;20433;-38
2023/10/20 09:23:34;;;;;;;8.63;7.93;;;17.60;1.00;;;;;;6274006;22;20431;-39
2023/10/20 09:25:59;;;;;;;8.23;7.40;;;17.60;99.90;;;;;;6276303;22;20490;-39
2023/10/20 09:28:25;;;;;;;8.60;7.80;;;17.60;99.90;;;;;;6274238;22;20223;-39
2023/10/20 09:30:51;;;;;;;8.80;8.00;;;17.60;99.90;;;;;;6273416;22;20133;-40
2023/10/20 09:33:17;;;;;;;8.73;7.77;;;17.70;99.90;;;;;;6272304;22;20236;-40
2023/10/20 09:35:44;;;;;;;7.93;7.20;;;17.80;99.90;;;;;;6272404;22;20402;-41
2023/10/20 09:38:14;;;;;;;7.50;6.80;;;18.00;99.90;;;;;;6269792;22;20435;-40
2023/10/20 09:40:41;;;;;;;7.00;6.40;;;18.50;7.40;;;;;;6272592;22;20415;-40
2023/10/20 09:43:28;;;;;;;7.30;6.60;;;19.00;99.90;;;;;;6273293;22;20506;-39
2023/10/20 09:46:07;;;;;;;6.53;5.97;;;19.30;33.40;;;;;;6273395;22;20387;-41
2023/10/20 09:48:34;;;;;;;6.93;5.90;;;19.60;99.90;;;;;;6272370;22;20383;-39
2023/10/20 09:51:00;;;;;;;6.67;6.07;;;19.70;99.90;;;;;;6273447;22;20666;-39
2023/10/20 09:53:26;;;;;;;5.87;4.83;;;19.80;1.00;;;;;;6272974;22;20382;-41
2023/10/20 09:55:52;;;;;;;5.13;4.70;;;20.20;1.00;;;;;;6274863;22;20652;-40
2023/10/20 09:58:25;;;;;;;4.60;4.20;;;20.50;99.90;;;;;;6274334;22;20362;-40
2023/10/20 10:00:52;;;;;;;5.40;5.00;;;20.80;1.00;;;;;;6273710;22;20363;-41
2023/10/20 10:03:39;;;;;;;4.57;3.70;;;21.10;1.00;;;;;;6276877;22;20426;-42
2023/10/20 10:06:10;;;;;;;4.23;3.13;;;21.10;1.00;;;;;;6286732;22;20434;-40
2023/10/20 10:08:45;;;;;;;3.67;3.30;;;21.00;99.90;;;;;;6309208;22;20379;-39
2023/10/20 10:11:26;;;;;;;4.97;2.70;;;20.90;99.90;;;;;;6308193;22;20710;-48
2023/10/20 10:13:57;;;;;;;3.20;2.90;;;20.80;1.00;;;;;;6306698;22;20378;-40
2023/10/20 10:16:23;;;;;;;4.23;3.10;;;20.90;1.00;;;;;;6307364;22;20351;-39
2023/10/20 10:18:50;;;;;;;3.37;2.90;;;21.00;1.00;;;;;;6308019;22;20362;-38
2023/10/20 10:21:29;;;;;;;4.33;2.90;;;21.00;1.00;;;;;;6281180;22;20542;-42
2023/10/20 10:24:22;;;;;;;2.50;2.23;;;21.00;1.00;;;;;;6282062;22;20434;-41
2023/10/20 10:26:56;;;;;;;2.50;2.30;;;21.00;1.00;;;;;;6301496;22;20466;-42
2023/10/20 10:29:50;;;;;;;2.40;2.20;;;21.00;1.00;;;;;;6305587;22;20382;-39
2023/10/20 10:32:27;;;;;;;5.07;2.03;;;21.10;1.00;;;;;;6305363;22;20369;-40
2023/10/20 10:34:53;;;;;;;2.77;2.13;;;21.20;99.90;;;;;;6278799;22;20704;-41
2023/10/20 10:37:36;;;;;;;2.20;1.90;;;21.20;99.90;;;;;;6308218;22;20781;-41
2023/10/20 10:40:15;;;;;;;2.13;1.60;;;21.30;99.90;;;;;;6254145;22;20469;-49
2023/10/20 10:42:43;;;;;;;2.40;1.97;;;21.30;99.90;;;;;;6309598;22;20421;-40
2023/10/20 10:45:27;;;;;;;2.00;1.70;;;21.30;99.90;;;;;;6307025;22;20464;-39
2023/10/20 10:48:10;;;;;;;1.50;1.10;;;21.20;99.90;;;;;;6306693;22;20696;-41
2023/10/20 10:50:37;;;;;;;2.07;1.40;;;21.00;99.90;;;;;;6279984;22;20824;-41
2023/10/20 10:53:03;;;;;;;1.40;0.90;;;20.90;99.90;;;;;;6278061;22;20507;-38
2023/10/20 10:55:30;;;;;;;1.20;0.90;;;20.90;99.90;;;;;;6306974;22;20371;-41
2023/10/20 10:57:59;;;;;;;1.10;0.70;;;21.10;99.90;;;;;;6306646;22;20369;-39
2023/10/20 11:00:25;;;;;;;2.50;0.93;;;21.20;99.90;;;;;;6279971;22;20451;-40
2023/10/20 11:02:51;;;;;;;1.67;0.80;;;21.20;77.90;;;;;;6252783;22;20668;-41
2023/10/20 11:05:18;;;;;;;11.40;2.73;;;21.10;59.60;;;;;;6280031;22;20451;-42
2023/10/20 11:08:04;;;;;;;1.13;0.63;;;20.10;99.90;;;;;;6273996;22;20757;-46
2023/10/20 11:10:34;;;;;;;2.40;0.80;;;19.50;99.90;;;;;;6273448;22;20363;-41
2023/10/20 11:13:04;;;;;;;1.10;0.60;;;18.70;99.90;;;;;;6273856;22;20446;-39
2023/10/20 11:15:32;;;;;;;1.00;0.50;;;18.30;1.00;;;;;;6274545;22;20410;-41
2023/10/20 11:18:00;;;;;;;0.90;0.50;;;18.00;99.90;;;;;;6275929;22;20490;-40
2023/10/20 11:20:27;;;;;;;1.30;0.40;;;17.80;16.10;;;;;;6273896;22;20383;-39
2023/10/20 11:22:53;;;;;;;1.40;0.57;;;17.90;99.90;;;;;;6274369;22;20384;-39
2023/10/20 11:25:20;;;;;;;1.20;0.60;;;17.80;1.00;;;;;;6274882;22;20707;-39
2023/10/20 11:27:53;;;;;;;0.93;0.60;;;17.70;1.00;;;;;;6272414;22;20348;-40
2023/10/20 11:30:29;;;;;;;1.20;0.63;;;17.90;99.90;;;;;;6274797;22;20379;-40
2023/10/20 11:32:55;;;;;;;1.83;0.90;;;18.10;99.90;;;;;;6276236;22;20374;-39
2023/10/20 11:35:24;;;;;;;1.30;0.90;;;18.50;1.10;;;;;;6275265;22;20390;-39
2023/10/20 11:37:53;;;;;;;0.90;0.43;;;18.40;1.00;;;;;;6275206;22;20371;-38
2023/10/20 11:40:20;;;;;;;0.97;0.40;;;18.10;99.90;;;;;;6273206;22;20379;-40
2023/10/20 11:42:46;;;;;;;1.20;0.50;;;18.10;1.00;;;;;;6273019;22;20348;-39
2023/10/20 11:45:12;;;;;;;1.00;0.60;;;18.00;1.00;;;;;;6274287;22;20390;-40
2023/10/20 11:47:39;;;;;;;1.00;0.60;;;18.10;99.90;;;;;;6275331;22;20480;-39
2023/10/20 11:50:08;;;;;;;1.40;0.50;;;18.20;99.90;;;;;;6272281;22;20375;-40
2023/10/20 11:52:37;;;;;;;0.90;0.50;;;18.60;99.90;;;;;;6274582;22;20763;-40
2023/10/20 11:55:03;;;;;;;1.57;0.77;;;18.50;98.60;;;;;;6274006;22;20735;-40
2023/10/20 11:57:29;;;;;;;1.40;0.50;;;18.40;99.90;;;;;;6274166;22;20379;-42
2023/10/20 11:59:55;;;;;;;1.17;0.77;;;18.40;99.90;;;;;;6274312;22;20624;-40
2023/10/20 12:02:20;;;;;;;0.90;0.50;;;18.40;1.00;;;;;;6274006;22;20437;-38
2023/10/20 12:04:46;;;;;;;1.93;0.60;;;18.40;1.00;;;;;;6271503;22;20454;-41
2023/10/20 12:07:12;;;;;;;1.00;0.60;;;18.00;99.90;;;;;;6297675;22;20317;-43
2023/10/20 12:09:37;;;;;;;1.30;0.40;;;17.90;57.60;;;;;;6305531;22;20546;-41
2023/10/20 12:12:03;;;;;;;1.77;1.30;;;17.90;1.00;;;;;;6303132;22;20166;-39
2023/10/20 12:14:29;;;;;;;1.10;0.60;;;17.90;1.00;;;;;;6277014;22;20164;-40
2023/10/20 12:16:54;;;;;;;1.30;0.77;;;17.90;1.00;;;;;;6300926;22;20204;-41
2023/10/20 12:19:20;;;;;;;1.10;0.50;;;18.10;96.70;;;;;;6304049;22;20129;-40
2023/10/20 12:21:46;;;;;;;0.83;0.40;;;18.40;99.90;;;;;;6277942;22;20152;-41
2023/10/20 12:24:12;;;;;;;1.50;0.80;;;18.50;1.00;;;;;;6305123;22;20213;-39
2023/10/20 12:26:37;;;;;;;1.40;0.40;;;18.80;1.00;;;;;;6306728;22;20183;-43
2023/10/20 12:29:03;;;;;;;1.30;0.70;;;19.80;1.00;;;;;;6277655;22;20148;-40
2023/10/20 12:31:29;;;;;;;1.20;0.63;;;20.80;1.00;;;;;;6277475;22;20129;-39
2023/10/20 12:33:55;;;;;;;4.03;0.50;;;21.60;99.90;;;;;;6307448;22;20143;-41
2023/10/20 12:36:24;;;;;;;1.00;0.63;;;21.90;99.90;;;;;;6306848;22;20418;-41
2023/10/20 12:38:50;;;;;;;1.23;0.43;;;22.40;57.40;;;;;;6305927;22;20777;-39
2023/10/20 12:41:16;;;;;;;1.00;0.53;;;23.00;1.00;;;;;;6307394;22;20386;-41
2023/10/20 12:43:44;;;;;;;0.90;0.50;;;23.50;1.00;;;;;;6302354;22;20447;-38
2023/10/20 12:46:12;;;;;;;2.30;0.47;;;23.80;1.00;;;;;;6306846;22;20381;-39
2023/10/20 12:48:39;;;;;;;1.77;0.60;;;23.60;1.00;;;;;;6306838;22;20381;-39
2023/10/20 12:51:12;;;;;;;1.10;0.47;;;24.30;1.00;;;;;;6306141;22;20383;-38
2023/10/20 12:53:38;;;;;;;1.13;0.60;;;23.70;1.00;;;;;;6306518;22;20809;-41
2023/10/20 12:56:05;;;;;;;1.00;0.47;;;23.50;1.00;;;;;;6305740;22;20432;-39
2023/10/20 12:58:31;;;;;;;1.10;0.50;;;23.20;1.00;;;;;;6304464;22;20754;-41
2023/10/20 13:00:57;;;;;;;1.20;0.40;;;23.00;1.00;;;;;;6305091;22;20417;-41
2023/10/20 13:03:23;;;;;;;0.90;0.40;;;22.30;1.00;;;;;;6275754;22;20434;-44
2023/10/20 13:05:49;;;;;;;1.30;0.40;;;21.70;1.00;;;;;;6302500;22;20219;-41
2023/10/20 13:08:15;;;;;;;1.50;0.50;;;21.00;1.00;;;;;;6305830;22;20848;-41
2023/10/20 13:10:41;;;;;;;1.37;0.60;;;20.50;1.00;;;;;;6305974;22;20148;-39
2023/10/20 13:13:07;;;;;;;1.13;0.50;;;19.90;1.00;;;;;;6279245;22;20128;-41
2023/10/20 13:15:35;;;;;;;1.13;0.53;;;19.40;1.00;;;;;;6305302;22;20445;-40